Time;durP1;ratioP1;P1;durP2;ratioP2;P2;SDS_P1;SDS_P2;PMS_P1;PMS_P2;Temp;Humidity;BMP_temperature;BMP_pressure;BME280_temperature;BME280_humidity;BME280_pressure;Samples;Min_cycle;Max_cycle;Signal;HPM_P1;HPM_P2
2021/12/22 00:00:06;;;;;;;0.40;0.40;;;-3.50;99.90;;;;;;5073788;28;20449;-87
2021/12/22 00:02:34;;;;;;;0.30;0.30;;;-3.50;99.90;;;;;;5073409;28;20471;-87
2021/12/22 00:05:01;;;;;;;0.80;0.80;;;-3.60;99.90;;;;;;5073591;28;20849;-87
2021/12/22 00:07:27;;;;;;;0.40;0.40;;;-3.60;99.90;;;;;;5073679;28;20815;-87
2021/12/22 00:09:54;;;;;;;0.30;0.30;;;-3.60;99.90;;;;;;5073539;28;20452;-87
2021/12/22 00:12:21;;;;;;;0.40;0.40;;;-3.70;99.90;;;;;;5073445;28;20439;-87
2021/12/22 00:14:49;;;;;;;0.30;0.30;;;-3.70;99.90;;;;;;5073389;28;20451;-87
2021/12/22 00:17:16;;;;;;;0.30;0.30;;;-3.70;99.90;;;;;;5073389;28;20433;-88
2021/12/22 00:19:42;;;;;;;2.47;2.37;;;-3.70;99.90;;;;;;5073380;28;20923;-88
2021/12/22 00:22:09;;;;;;;0.30;0.30;;;-3.70;99.90;;;;;;5073429;28;20567;-89
2021/12/22 00:24:36;;;;;;;0.73;0.73;;;-3.80;99.90;;;;;;5073736;28;20780;-88
2021/12/22 00:27:03;;;;;;;0.30;0.30;;;-3.80;99.90;;;;;;5073325;28;21019;-88
2021/12/22 00:29:30;;;;;;;0.33;0.33;;;-3.80;99.90;;;;;;5073706;28;20524;-88
2021/12/22 00:32:09;;;;;;;0.97;0.97;;;-3.70;99.90;;;;;;5073238;28;20437;-88
2021/12/22 00:34:45;;;;;;;0.60;0.60;;;-3.70;99.90;;;;;;5073583;28;20446;-88
2021/12/22 00:37:12;;;;;;;0.30;0.30;;;-3.80;99.90;;;;;;5073764;28;20575;-88
2021/12/22 00:39:39;;;;;;;0.40;0.40;;;-3.70;99.90;;;;;;5077240;28;20454;-88
2021/12/22 00:42:06;;;;;;;0.30;0.30;;;-3.80;99.90;;;;;;5077171;28;20439;-88
2021/12/22 00:44:33;;;;;;;0.40;0.40;;;-3.80;99.90;;;;;;5076992;28;20966;-89
2021/12/22 00:47:01;;;;;;;1.23;1.23;;;-3.80;99.90;;;;;;5077007;28;20447;-89
2021/12/22 00:49:28;;;;;;;0.40;0.40;;;-3.80;99.90;;;;;;5077040;28;20449;-89
2021/12/22 00:51:55;;;;;;;1.03;1.03;;;-3.60;99.90;;;;;;5076710;28;20450;-88
2021/12/22 00:54:22;;;;;;;0.30;0.30;;;-3.70;99.90;;;;;;5076640;28;20476;-89
2021/12/22 00:56:48;;;;;;;0.40;0.40;;;-3.70;99.90;;;;;;5076504;28;20931;-88
2021/12/22 00:59:17;;;;;;;0.33;0.33;;;-3.80;99.90;;;;;;5076627;28;20443;-88
2021/12/22 01:01:45;;;;;;;2.93;2.83;;;-3.70;99.90;;;;;;5076924;28;20447;-89
2021/12/22 01:04:13;;;;;;;0.30;0.30;;;-3.70;99.90;;;;;;5076764;28;20424;-88
2021/12/22 01:06:40;;;;;;;0.30;0.30;;;-3.70;99.90;;;;;;5077730;28;20449;-87
2021/12/22 01:09:07;;;;;;;0.40;0.40;;;-3.80;99.90;;;;;;5076351;28;20419;-89
2021/12/22 01:11:34;;;;;;;0.50;0.50;;;-3.80;99.90;;;;;;5076503;28;20491;-88
2021/12/22 01:14:02;;;;;;;0.30;0.30;;;-3.80;99.90;;;;;;5076457;28;20471;-88
2021/12/22 01:16:28;;;;;;;0.50;0.50;;;-3.80;99.90;;;;;;5076444;28;20448;-88
2021/12/22 01:18:58;;;;;;;0.50;0.50;;;-3.80;99.90;;;;;;5076330;28;20441;-88
2021/12/22 01:21:36;;;;;;;0.50;0.47;;;-3.90;99.90;;;;;;5076519;28;20436;-88
2021/12/22 01:24:13;;;;;;;0.40;0.40;;;-3.90;99.90;;;;;;5077065;28;20443;-88
2021/12/22 01:26:45;;;;;;;0.40;0.40;;;-3.90;99.90;;;;;;5076692;28;20457;-88
2021/12/22 01:29:12;;;;;;;0.40;0.40;;;-3.90;99.90;;;;;;5076130;28;20448;-88
2021/12/22 01:31:40;;;;;;;0.40;0.40;;;-3.90;99.90;;;;;;5076017;28;20465;-89
2021/12/22 01:34:07;;;;;;;0.30;0.30;;;-3.90;99.90;;;;;;5076371;28;20533;-88
2021/12/22 01:36:36;;;;;;;0.40;0.40;;;-4.00;99.90;;;;;;5075680;28;20806;-88
2021/12/22 01:39:03;;;;;;;0.30;0.30;;;-3.90;99.90;;;;;;5075901;28;20818;-88
2021/12/22 01:41:30;;;;;;;0.30;0.30;;;-3.90;99.90;;;;;;5075652;28;20946;-88
2021/12/22 01:43:57;;;;;;;0.40;0.40;;;-3.90;99.90;;;;;;5075851;28;20420;-88
2021/12/22 01:49:17;;;;;;;0.57;0.57;;;-3.90;99.90;;;;;;5049006;28;20483;-89
2021/12/22 01:51:56;;;;;;;0.37;0.37;;;-3.80;99.90;;;;;;5075685;28;20431;-89
2021/12/22 01:54:33;;;;;;;0.30;0.30;;;-3.80;99.90;;;;;;5075750;28;20473;-89
2021/12/22 01:57:05;;;;;;;2.00;0.80;;;-3.70;99.90;;;;;;5075687;28;20472;-89
2021/12/22 01:59:32;;;;;;;0.40;0.40;;;-3.60;99.90;;;;;;5075869;28;20411;-89
2021/12/22 02:02:00;;;;;;;0.70;0.70;;;-3.60;99.90;;;;;;5075485;28;20449;-89
2021/12/22 02:04:27;;;;;;;0.30;0.30;;;-3.60;99.90;;;;;;5075588;28;20416;-89
2021/12/22 02:06:55;;;;;;;0.30;0.30;;;-3.70;99.90;;;;;;5075346;28;20440;-89
2021/12/22 02:09:37;;;;;;;0.30;0.30;;;-3.70;99.90;;;;;;5075386;28;20445;-89
2021/12/22 02:12:06;;;;;;;0.37;0.37;;;-3.80;99.90;;;;;;5075270;28;20449;-88
2021/12/22 02:14:33;;;;;;;0.40;0.40;;;-3.70;99.90;;;;;;5075293;28;20490;-89
2021/12/22 02:17:02;;;;;;;0.30;0.30;;;-3.70;99.90;;;;;;5075249;28;20462;-89
2021/12/22 02:19:28;;;;;;;0.30;0.30;;;-3.60;99.90;;;;;;5075415;28;20522;-89
2021/12/22 02:21:58;;;;;;;0.30;0.30;;;-3.60;99.90;;;;;;5075194;28;20451;-89
2021/12/22 02:24:25;;;;;;;0.30;0.30;;;-3.50;99.90;;;;;;5075102;28;20419;-89
2021/12/22 02:26:59;;;;;;;0.30;0.30;;;-3.50;99.90;;;;;;5075193;28;20428;-89
2021/12/22 02:29:35;;;;;;;0.37;0.37;;;-3.50;99.90;;;;;;5074697;28;20436;-88
2021/12/22 02:32:07;;;;;;;0.37;0.37;;;-3.50;99.90;;;;;;5074692;28;20435;-89
2021/12/22 02:34:41;;;;;;;0.30;0.30;;;-3.50;99.90;;;;;;5074949;28;20517;-89
2021/12/22 02:37:13;;;;;;;0.47;0.47;;;-3.50;99.90;;;;;;5074546;28;20490;-89
2021/12/22 02:39:46;;;;;;;0.50;0.50;;;-3.50;99.90;;;;;;5081785;28;20407;-89
2021/12/22 02:42:13;;;;;;;0.40;0.40;;;-3.50;99.90;;;;;;5096381;28;20487;-87
2021/12/22 02:44:40;;;;;;;0.30;0.30;;;-3.50;99.90;;;;;;5084603;28;20441;-89
2021/12/22 02:47:18;;;;;;;0.60;0.60;;;-3.40;99.90;;;;;;5075407;28;20441;-89
2021/12/22 02:49:44;;;;;;;0.30;0.30;;;-3.30;99.90;;;;;;5074997;28;20427;-89
2021/12/22 02:52:12;;;;;;;0.40;0.40;;;-3.40;99.90;;;;;;5074721;28;20451;-88
2021/12/22 02:54:46;;;;;;;0.50;0.50;;;-3.40;99.90;;;;;;5074766;28;20484;-89
2021/12/22 02:57:24;;;;;;;0.30;0.30;;;-3.40;99.90;;;;;;5074973;28;20452;-88
2021/12/22 03:00:11;;;;;;;0.30;0.30;;;-3.40;99.90;;;;;;5074323;28;20412;-88
2021/12/22 03:02:44;;;;;;;1.67;1.57;;;-3.50;99.90;;;;;;5074484;28;20432;-88
2021/12/22 03:05:11;;;;;;;0.30;0.30;;;-3.50;99.90;;;;;;5074589;28;20441;-89
2021/12/22 03:07:39;;;;;;;0.30;0.30;;;-3.50;99.90;;;;;;5074548;28;20456;-89
2021/12/22 03:10:14;;;;;;;0.57;0.57;;;-3.50;99.90;;;;;;5074257;28;20432;-88
2021/12/22 03:12:41;;;;;;;0.37;0.37;;;-3.50;99.90;;;;;;5073901;28;20995;-87
2021/12/22 03:15:10;;;;;;;0.30;0.30;;;-3.60;99.90;;;;;;5074549;28;20481;-89
2021/12/22 03:17:38;;;;;;;10.60;1.00;;;-3.60;99.90;;;;;;5074929;28;20449;-88
2021/12/22 03:20:07;;;;;;;0.30;0.30;;;-3.60;99.90;;;;;;5074850;28;20434;-88
2021/12/22 03:22:34;;;;;;;0.30;0.30;;;-3.60;99.90;;;;;;5076496;28;20449;-86
2021/12/22 03:25:06;;;;;;;0.40;0.40;;;-3.60;99.90;;;;;;5074119;28;20451;-89
2021/12/22 03:27:33;;;;;;;0.30;0.30;;;-3.60;99.90;;;;;;5074607;28;20437;-88
2021/12/22 03:29:59;;;;;;;0.60;0.60;;;-3.60;99.90;;;;;;5074440;28;20771;-89
2021/12/22 03:32:26;;;;;;;0.53;0.53;;;-3.60;99.90;;;;;;5074307;28;20469;-89
2021/12/22 03:34:53;;;;;;;0.40;0.40;;;-3.60;99.90;;;;;;5073858;28;20476;-89
2021/12/22 03:37:20;;;;;;;0.50;0.50;;;-3.60;99.90;;;;;;5073815;28;20834;-89
2021/12/22 03:39:47;;;;;;;0.30;0.30;;;-3.60;99.90;;;;;;5074228;28;20439;-89
2021/12/22 03:42:15;;;;;;;0.50;0.50;;;-3.60;99.90;;;;;;5073986;28;20943;-89
2021/12/22 03:44:42;;;;;;;0.30;0.30;;;-3.60;99.90;;;;;;5074042;28;20411;-89
2021/12/22 03:47:09;;;;;;;0.40;0.40;;;-3.60;99.90;;;;;;5074210;28;20414;-89
2021/12/22 03:49:36;;;;;;;1.40;1.33;;;-3.60;99.90;;;;;;5073908;28;20407;-89
2021/12/22 03:52:05;;;;;;;0.50;0.50;;;-3.50;99.90;;;;;;5073954;28;20466;-89
2021/12/22 03:54:31;;;;;;;3.20;2.87;;;-3.50;99.90;;;;;;5073941;28;20427;-89
2021/12/22 03:56:58;;;;;;;0.30;0.30;;;-3.40;99.90;;;;;;5073688;28;20438;-89
2021/12/22 03:59:26;;;;;;;0.60;0.60;;;-3.40;99.90;;;;;;5073970;28;20425;-89
2021/12/22 04:01:54;;;;;;;0.83;0.83;;;-3.40;99.90;;;;;;5073809;28;20440;-89
2021/12/22 04:04:20;;;;;;;0.30;0.30;;;-3.40;99.90;;;;;;5073963;28;20453;-89
2021/12/22 04:06:50;;;;;;;0.60;0.60;;;-3.50;99.90;;;;;;5073891;28;20436;-89
2021/12/22 04:09:17;;;;;;;0.30;0.30;;;-3.50;99.90;;;;;;5074084;28;20953;-89
2021/12/22 04:11:45;;;;;;;0.70;0.70;;;-3.50;99.90;;;;;;5073827;28;20458;-89
2021/12/22 04:14:12;;;;;;;0.30;0.30;;;-3.50;99.90;;;;;;5077882;28;20932;-89
2021/12/22 04:16:41;;;;;;;0.40;0.40;;;-3.50;99.90;;;;;;5077506;28;20463;-89
2021/12/22 04:19:07;;;;;;;0.37;0.37;;;-3.60;99.90;;;;;;5077366;28;20412;-89
2021/12/22 04:21:34;;;;;;;0.40;0.40;;;-3.60;99.90;;;;;;5077124;28;20476;-89
2021/12/22 04:24:02;;;;;;;0.50;0.50;;;-3.70;99.90;;;;;;5077222;28;20910;-89
2021/12/22 04:26:31;;;;;;;0.30;0.30;;;-3.70;99.90;;;;;;5077122;28;20487;-89
2021/12/22 04:28:58;;;;;;;0.30;0.30;;;-3.70;99.90;;;;;;5077493;28;20504;-89
2021/12/22 04:31:25;;;;;;;0.87;0.87;;;-3.80;99.90;;;;;;5084003;28;20439;-89
2021/12/22 04:33:54;;;;;;;0.30;0.30;;;-3.80;99.90;;;;;;5097107;28;20403;-88
2021/12/22 04:36:20;;;;;;;0.30;0.30;;;-3.90;99.90;;;;;;5088793;28;21034;-89
2021/12/22 04:38:47;;;;;;;0.30;0.30;;;-3.90;99.90;;;;;;5078481;28;20430;-89
2021/12/22 04:41:14;;;;;;;0.40;0.40;;;-3.90;99.90;;;;;;5076876;28;20443;-89
2021/12/22 04:43:41;;;;;;;0.80;0.80;;;-3.90;99.90;;;;;;5076931;28;20437;-89
2021/12/22 04:46:08;;;;;;;0.30;0.30;;;-3.90;99.90;;;;;;5076798;28;20455;-89
2021/12/22 04:48:35;;;;;;;0.30;0.30;;;-3.90;99.90;;;;;;5077306;28;20449;-89
2021/12/22 04:51:12;;;;;;;0.80;0.80;;;-3.90;99.90;;;;;;5076833;28;20443;-89
2021/12/22 04:53:48;;;;;;;0.30;0.30;;;-3.90;99.90;;;;;;5077310;28;20472;-89
2021/12/22 04:56:15;;;;;;;0.30;0.30;;;-3.90;99.90;;;;;;5077065;28;20447;-89
2021/12/22 04:58:42;;;;;;;0.30;0.30;;;-3.90;99.90;;;;;;5076884;28;20460;-89
2021/12/22 05:01:09;;;;;;;0.40;0.40;;;-3.90;99.90;;;;;;5076788;28;20439;-89
2021/12/22 05:03:35;;;;;;;1.90;0.93;;;-3.90;99.90;;;;;;5076535;28;20410;-89
2021/12/22 05:06:04;;;;;;;0.37;0.37;;;-3.80;99.90;;;;;;5076699;28;20424;-89
2021/12/22 05:08:30;;;;;;;0.40;0.40;;;-3.80;99.90;;;;;;5076611;28;20440;-89
2021/12/22 05:10:57;;;;;;;1.00;0.97;;;-3.80;99.90;;;;;;5076685;28;20452;-89
2021/12/22 05:13:24;;;;;;;0.40;0.40;;;-3.80;99.90;;;;;;5076700;28;20819;-89
2021/12/22 05:15:52;;;;;;;0.40;0.40;;;-3.80;99.90;;;;;;5076393;28;20479;-89
2021/12/22 05:18:24;;;;;;;0.93;0.93;;;-3.90;99.90;;;;;;5076255;28;20473;-89
2021/12/22 05:20:53;;;;;;;0.30;0.30;;;-3.80;99.90;;;;;;5076387;28;20855;-89
2021/12/22 05:23:21;;;;;;;0.30;0.30;;;-3.80;99.90;;;;;;5076099;28;20477;-89
2021/12/22 05:25:48;;;;;;;0.30;0.30;;;-3.80;99.90;;;;;;5076164;28;20419;-89
2021/12/22 05:28:15;;;;;;;0.40;0.40;;;-3.80;99.90;;;;;;5076211;28;20438;-89
2021/12/22 05:30:46;;;;;;;0.77;0.77;;;-3.80;99.90;;;;;;5076855;28;20423;-89
2021/12/22 05:33:13;;;;;;;0.40;0.40;;;-3.80;99.90;;;;;;5079322;28;20461;-89
2021/12/22 05:35:40;;;;;;;0.30;0.30;;;-3.80;99.90;;;;;;5079005;28;20447;-89
2021/12/22 05:38:06;;;;;;;0.30;0.30;;;-3.80;99.90;;;;;;5080441;28;20414;-88
2021/12/22 05:40:35;;;;;;;0.70;0.70;;;-3.80;99.90;;;;;;5075815;28;20936;-89
2021/12/22 05:43:01;;;;;;;0.33;0.33;;;-3.80;99.90;;;;;;5075925;28;20436;-89
2021/12/22 05:45:28;;;;;;;0.70;0.70;;;-3.80;99.90;;;;;;5075791;28;20426;-89
2021/12/22 05:47:55;;;;;;;0.90;0.90;;;-3.80;99.90;;;;;;5075713;28;20412;-89
2021/12/22 05:50:22;;;;;;;0.40;0.40;;;-3.90;99.90;;;;;;5075976;28;20428;-89
2021/12/22 05:52:49;;;;;;;1.73;1.63;;;-3.90;99.90;;;;;;5075832;28;20447;-89
2021/12/22 05:55:16;;;;;;;0.40;0.40;;;-3.90;99.90;;;;;;5075787;28;20951;-89
2021/12/22 05:57:45;;;;;;;0.30;0.30;;;-3.90;99.90;;;;;;5075871;28;20407;-89
2021/12/22 06:00:12;;;;;;;0.30;0.30;;;-3.90;99.90;;;;;;5075747;28;20441;-89
2021/12/22 06:02:39;;;;;;;0.87;0.70;;;-3.90;99.90;;;;;;5075424;28;20423;-89
2021/12/22 06:05:07;;;;;;;0.73;0.73;;;-4.00;99.90;;;;;;5075618;28;20523;-89
2021/12/22 06:07:34;;;;;;;0.40;0.40;;;-4.00;99.90;;;;;;5075430;28;20433;-88
2021/12/22 06:10:00;;;;;;;0.67;0.67;;;-4.10;99.90;;;;;;5075204;28;20445;-89
2021/12/22 06:12:27;;;;;;;0.30;0.30;;;-4.10;99.90;;;;;;5075809;28;20447;-89
2021/12/22 06:14:55;;;;;;;1.30;0.60;;;-4.10;99.90;;;;;;5075715;28;20521;-89
2021/12/22 06:17:22;;;;;;;0.40;0.40;;;-4.10;99.90;;;;;;5075715;28;20491;-88
2021/12/22 06:19:49;;;;;;;0.67;0.67;;;-4.20;99.90;;;;;;5075815;28;20423;-89
2021/12/22 06:22:16;;;;;;;0.40;0.40;;;-4.10;99.90;;;;;;5075243;28;21026;-89
2021/12/22 06:24:43;;;;;;;0.40;0.40;;;-4.10;99.90;;;;;;5075430;28;20419;-89
2021/12/22 06:27:10;;;;;;;0.40;0.40;;;-4.10;99.90;;;;;;5075253;28;20455;-89
2021/12/22 06:29:36;;;;;;;0.30;0.30;;;-4.10;99.90;;;;;;5075276;28;20420;-89
2021/12/22 06:32:05;;;;;;;0.40;0.40;;;-4.10;99.90;;;;;;5075314;28;20456;-90
2021/12/22 06:34:32;;;;;;;0.40;0.40;;;-4.10;99.90;;;;;;5074879;28;20411;-90
2021/12/22 06:36:59;;;;;;;0.30;0.30;;;-4.00;99.90;;;;;;5089084;28;20463;-89
2021/12/22 06:39:26;;;;;;;0.40;0.40;;;-4.00;99.90;;;;;;5097376;28;20421;-89
2021/12/22 06:41:53;;;;;;;0.40;0.40;;;-4.00;99.90;;;;;;5087500;28;20439;-89
2021/12/22 06:44:23;;;;;;;1.90;0.60;;;-4.00;99.90;;;;;;5075872;28;20921;-88
2021/12/22 06:46:50;;;;;;;0.30;0.30;;;-4.10;99.90;;;;;;5075310;28;20476;-89
2021/12/22 06:49:18;;;;;;;0.30;0.30;;;-4.10;99.90;;;;;;5075175;28;20424;-89
2021/12/22 06:51:45;;;;;;;0.53;0.53;;;-4.10;99.90;;;;;;5074969;28;20472;-89
2021/12/22 06:54:13;;;;;;;0.40;0.40;;;-4.10;99.90;;;;;;5075051;28;20423;-89
2021/12/22 06:56:40;;;;;;;0.73;0.73;;;-4.10;99.90;;;;;;5074944;28;20535;-89
2021/12/22 06:59:07;;;;;;;0.50;0.50;;;-4.10;99.90;;;;;;5074987;28;20472;-89
2021/12/22 07:01:35;;;;;;;0.50;0.50;;;-4.10;99.90;;;;;;5074998;28;20452;-89
2021/12/22 07:04:03;;;;;;;0.30;0.30;;;-4.20;99.90;;;;;;5074703;28;20430;-89
2021/12/22 07:06:31;;;;;;;0.30;0.30;;;-4.20;99.90;;;;;;5074794;28;20424;-89
2021/12/22 07:08:58;;;;;;;0.30;0.30;;;-4.20;99.90;;;;;;5074377;28;20481;-88
2021/12/22 07:11:25;;;;;;;0.30;0.30;;;-4.20;99.90;;;;;;5074996;28;20809;-89
2021/12/22 07:13:52;;;;;;;0.30;0.30;;;-4.10;99.90;;;;;;5074965;28;20460;-89
2021/12/22 07:16:19;;;;;;;0.40;0.40;;;-4.20;99.90;;;;;;5074605;28;20480;-89
2021/12/22 07:18:46;;;;;;;0.50;0.50;;;-4.10;99.90;;;;;;5075209;28;20460;-89
2021/12/22 07:21:13;;;;;;;0.33;0.33;;;-4.10;99.90;;;;;;5074246;28;20475;-89
2021/12/22 07:23:41;;;;;;;0.40;0.40;;;-4.00;99.90;;;;;;5074689;28;20438;-89
2021/12/22 07:26:13;;;;;;;0.30;0.30;;;-4.00;99.90;;;;;;5074505;28;20924;-89
2021/12/22 07:28:40;;;;;;;0.30;0.30;;;-4.00;99.90;;;;;;5074433;28;20906;-89
2021/12/22 07:31:07;;;;;;;0.30;0.30;;;-3.90;99.90;;;;;;5075298;28;20499;-89
2021/12/22 07:33:34;;;;;;;0.30;0.30;;;-3.90;99.90;;;;;;5075901;28;20413;-89
2021/12/22 07:36:04;;;;;;;0.30;0.30;;;-3.90;99.90;;;;;;5075073;28;20461;-89
2021/12/22 07:38:35;;;;;;;0.30;0.30;;;-3.90;99.90;;;;;;5074944;28;20445;-89
2021/12/22 07:41:05;;;;;;;0.40;0.40;;;-3.90;99.90;;;;;;5074843;28;20424;-90
2021/12/22 07:43:32;;;;;;;1.70;0.80;;;-3.90;99.90;;;;;;5074628;28;20423;-89
2021/12/22 07:46:00;;;;;;;0.57;0.57;;;-3.90;99.90;;;;;;5075433;28;20448;-89
2021/12/22 07:48:27;;;;;;;0.43;0.43;;;-3.90;99.90;;;;;;5078482;28;20441;-89
2021/12/22 07:50:54;;;;;;;1.27;1.17;;;-3.90;99.90;;;;;;5081490;28;20459;-89
2021/12/22 07:53:22;;;;;;;1.23;1.23;;;-4.00;99.90;;;;;;5081819;28;20778;-89
2021/12/22 07:55:52;;;;;;;0.30;0.30;;;-4.00;99.90;;;;;;5082594;28;20407;-85
2021/12/22 07:58:21;;;;;;;0.30;0.30;;;-4.00;99.90;;;;;;5082427;28;20819;-89
2021/12/22 08:00:47;;;;;;;2.10;1.17;;;-3.90;99.90;;;;;;5078886;28;20967;-89
2021/12/22 08:03:14;;;;;;;0.30;0.30;;;-3.90;99.90;;;;;;5078547;28;20418;-89
2021/12/22 08:05:41;;;;;;;0.30;0.30;;;-3.90;99.90;;;;;;5079055;28;20436;-89
2021/12/22 08:08:08;;;;;;;0.50;0.50;;;-3.80;99.90;;;;;;5078655;28;20420;-88
2021/12/22 08:10:36;;;;;;;0.40;0.40;;;-3.80;99.90;;;;;;5080799;28;20985;-89
2021/12/22 08:13:03;;;;;;;0.60;0.60;;;-3.80;99.90;;;;;;5084288;28;20472;-89
2021/12/22 08:15:32;;;;;;;0.40;0.40;;;-3.70;99.90;;;;;;5081990;28;20473;-88
2021/12/22 08:17:59;;;;;;;0.37;0.37;;;-3.70;99.90;;;;;;5080470;28;20469;-88
2021/12/22 08:20:26;;;;;;;0.40;0.40;;;-3.60;99.90;;;;;;5078636;28;20449;-88
2021/12/22 08:22:53;;;;;;;0.40;0.40;;;-3.60;99.90;;;;;;5078483;28;21002;-88
2021/12/22 08:25:20;;;;;;;0.33;0.33;;;-3.60;99.90;;;;;;5078410;28;20411;-87
2021/12/22 08:27:48;;;;;;;0.97;0.97;;;-3.60;99.90;;;;;;5078279;28;20441;-88
2021/12/22 08:30:15;;;;;;;0.40;0.40;;;-3.60;99.90;;;;;;5077991;28;20445;-88
2021/12/22 08:32:45;;;;;;;0.87;0.87;;;-3.60;99.90;;;;;;5078153;28;20443;-88
2021/12/22 08:35:15;;;;;;;0.30;0.30;;;-3.50;99.90;;;;;;5077918;28;20412;-87
2021/12/22 08:40:26;;;;;;;0.30;0.30;;;-3.50;99.90;;;;;;5077616;28;20435;-88
2021/12/22 08:42:54;;;;;;;0.70;0.70;;;-3.40;99.90;;;;;;5077073;28;20463;-88
2021/12/22 08:45:21;;;;;;;0.67;0.67;;;-3.40;99.90;;;;;;5077523;28;20407;-88
2021/12/22 08:47:49;;;;;;;0.40;0.40;;;-3.30;99.90;;;;;;5077074;28;20923;-87
2021/12/22 08:50:19;;;;;;;0.30;0.30;;;-3.30;99.90;;;;;;5077424;28;20411;-87
2021/12/22 08:52:46;;;;;;;0.60;0.60;;;-3.20;99.90;;;;;;5077104;28;20877;-88
2021/12/22 08:55:14;;;;;;;0.30;0.30;;;-3.10;99.90;;;;;;5077909;28;20499;-87
2021/12/22 08:57:42;;;;;;;0.40;0.40;;;-3.10;99.90;;;;;;5077507;28;20451;-87
2021/12/22 09:00:12;;;;;;;0.40;0.40;;;-3.10;99.90;;;;;;5084268;28;20493;-87
2021/12/22 09:02:40;;;;;;;0.40;0.40;;;-3.10;99.90;;;;;;5100073;28;20473;-87
2021/12/22 09:05:09;;;;;;;0.87;0.63;;;-3.00;99.90;;;;;;5080795;28;20415;-87
2021/12/22 09:07:35;;;;;;;0.30;0.30;;;-3.00;99.90;;;;;;5077291;28;20456;-87
2021/12/22 09:10:03;;;;;;;0.30;0.30;;;-2.90;99.90;;;;;;5076969;28;20388;-87
2021/12/22 09:12:30;;;;;;;0.40;0.40;;;-2.90;99.90;;;;;;5076846;28;20887;-87
2021/12/22 09:14:57;;;;;;;0.40;0.40;;;-2.80;99.90;;;;;;5077046;28;20507;-87
2021/12/22 09:17:24;;;;;;;0.70;0.70;;;-2.80;99.90;;;;;;5076700;28;20436;-87
2021/12/22 09:19:53;;;;;;;0.50;0.50;;;-2.70;99.90;;;;;;5076766;28;20461;-87
2021/12/22 09:22:21;;;;;;;0.30;0.30;;;-2.70;99.90;;;;;;5076108;28;21025;-87
2021/12/22 09:24:48;;;;;;;0.30;0.30;;;-2.60;99.90;;;;;;5077008;28;20758;-86
2021/12/22 09:27:15;;;;;;;0.60;0.60;;;-2.50;99.90;;;;;;5075821;28;20424;-83
2021/12/22 09:29:42;;;;;;;0.30;0.30;;;-2.50;99.90;;;;;;5076017;28;20448;-86
2021/12/22 09:32:12;;;;;;;0.73;0.73;;;-2.30;99.90;;;;;;5076032;28;20440;-87
2021/12/22 09:34:39;;;;;;;0.30;0.30;;;-2.30;99.90;;;;;;5076548;28;20430;-87
2021/12/22 09:37:06;;;;;;;0.30;0.30;;;-2.10;99.90;;;;;;5075674;28;20492;-86
2021/12/22 09:39:34;;;;;;;0.70;0.70;;;-2.00;99.90;;;;;;5075778;28;20429;-86
2021/12/22 09:42:01;;;;;;;1.67;1.13;;;-1.90;99.90;;;;;;5076303;28;20445;-86
2021/12/22 09:44:32;;;;;;;0.30;0.30;;;-1.80;99.90;;;;;;5075847;28;20898;-87
2021/12/22 09:46:58;;;;;;;0.97;0.97;;;-1.60;99.90;;;;;;5076562;28;20955;-87
2021/12/22 09:49:37;;;;;;;1.20;1.17;;;-0.80;99.90;;;;;;5075715;28;20419;-86
2021/12/22 09:52:18;;;;;;;1.47;0.50;;;0.50;99.90;;;;;;5075890;28;20479;-86
2021/12/22 09:54:47;;;;;;;0.30;0.30;;;1.90;99.90;;;;;;5075751;28;20429;-86
2021/12/22 09:57:17;;;;;;;0.30;0.30;;;3.50;99.90;;;;;;5075578;28;20476;-86
2021/12/22 09:59:45;;;;;;;0.30;0.30;;;4.60;99.90;;;;;;5075831;28;20491;-86
2021/12/22 10:02:12;;;;;;;0.30;0.30;;;5.30;99.90;;;;;;5075918;28;20530;-86
2021/12/22 10:04:39;;;;;;;0.60;0.60;;;6.10;99.90;;;;;;5078584;28;20445;-86
2021/12/22 10:07:07;;;;;;;0.50;0.50;;;6.60;98.30;;;;;;5078294;28;20453;-85
2021/12/22 10:09:43;;;;;;;0.30;0.27;;;6.90;95.10;;;;;;5080378;28;20463;-82
2021/12/22 10:12:17;;;;;;;0.30;0.30;;;7.00;93.90;;;;;;5079807;28;20541;-83
2021/12/22 10:14:52;;;;;;;0.30;0.30;;;6.80;92.50;;;;;;5075064;28;20429;-85
2021/12/22 10:17:32;;;;;;;0.40;0.30;;;6.20;92.80;;;;;;5074948;28;20480;-85
2021/12/22 10:20:00;;;;;;;1.10;1.10;;;5.40;94.30;;;;;;5074966;28;20463;-85
2021/12/22 10:22:31;;;;;;;0.40;0.40;;;4.60;95.60;;;;;;5074353;28;20847;-84
2021/12/22 10:25:08;;;;;;;0.33;0.30;;;4.10;96.60;;;;;;5074442;28;20441;-85
2021/12/22 10:27:38;;;;;;;0.43;0.43;;;3.50;97.30;;;;;;5074628;28;20429;-85
2021/12/22 10:30:26;;;;;;;0.60;0.60;;;3.10;98.80;;;;;;5076431;28;20827;-85
2021/12/22 10:33:08;;;;;;;0.30;0.30;;;2.70;99.60;;;;;;5074708;28;20464;-85
2021/12/22 10:35:38;;;;;;;1.37;0.77;;;2.50;99.90;;;;;;5074209;28;20440;-86
2021/12/22 10:38:06;;;;;;;0.40;0.40;;;2.10;99.90;;;;;;5074642;28;20548;-86
2021/12/22 10:40:35;;;;;;;0.40;0.40;;;1.90;99.90;;;;;;5074643;28;20455;-86
2021/12/22 10:43:05;;;;;;;0.53;0.53;;;1.60;99.90;;;;;;5074486;28;20464;-85
2021/12/22 10:45:35;;;;;;;0.60;0.60;;;1.20;99.90;;;;;;5075332;28;20425;-86
2021/12/22 10:50:53;;;;;;;0.30;0.30;;;1.00;99.90;;;;;;5074459;28;20448;-86
2021/12/22 10:53:20;;;;;;;0.40;0.40;;;0.80;99.90;;;;;;5074594;28;20440;-85
2021/12/22 10:55:49;;;;;;;1.27;1.17;;;0.60;99.90;;;;;;5074024;28;20816;-85
2021/12/22 10:58:20;;;;;;;0.50;0.50;;;0.60;99.90;;;;;;5074385;28;20476;-85
2021/12/22 11:01:00;;;;;;;0.90;0.90;;;0.40;99.90;;;;;;5076161;28;20411;-86
2021/12/22 11:03:36;;;;;;;0.40;0.40;;;0.30;99.90;;;;;;5097384;28;20416;-85
2021/12/22 11:06:10;;;;;;;0.30;0.30;;;0.30;99.90;;;;;;5077737;28;20410;-86
2021/12/22 11:08:36;;;;;;;0.30;0.20;;;0.20;99.90;;;;;;5074428;28;20432;-86
2021/12/22 11:11:13;;;;;;;0.30;0.30;;;0.10;99.90;;;;;;5074120;28;21006;-86
2021/12/22 11:13:41;;;;;;;0.30;0.30;;;0.20;99.90;;;;;;5074474;28;20440;-86
2021/12/22 11:16:12;;;;;;;0.50;0.50;;;0.30;99.90;;;;;;5074863;28;20799;-86
2021/12/22 11:18:39;;;;;;;0.50;0.50;;;0.30;99.90;;;;;;5074073;28;20480;-86
2021/12/22 11:21:12;;;;;;;0.37;0.37;;;0.30;99.90;;;;;;5074099;28;20449;-86
2021/12/22 11:23:40;;;;;;;0.30;0.30;;;0.30;99.90;;;;;;5074300;28;20436;-85
2021/12/22 11:26:07;;;;;;;0.30;0.30;;;0.40;99.90;;;;;;5073340;28;20940;-85
2021/12/22 11:28:35;;;;;;;0.40;0.40;;;0.40;99.90;;;;;;5073573;28;20432;-85
2021/12/22 11:31:05;;;;;;;0.30;0.30;;;0.50;99.90;;;;;;5073390;28;20457;-85
2021/12/22 11:33:32;;;;;;;0.90;0.90;;;0.50;99.90;;;;;;5073505;28;20413;-85
2021/12/22 11:36:01;;;;;;;0.30;0.30;;;0.50;99.90;;;;;;5073245;28;20995;-84
2021/12/22 11:38:30;;;;;;;0.30;0.30;;;0.40;99.90;;;;;;5073255;28;20487;-84
2021/12/22 11:41:09;;;;;;;0.40;0.30;;;0.30;99.90;;;;;;5073553;28;20463;-84
2021/12/22 11:43:37;;;;;;;0.80;0.80;;;0.30;99.90;;;;;;5073520;28;20411;-84
2021/12/22 11:46:07;;;;;;;0.30;0.30;;;0.30;99.90;;;;;;5073365;28;20433;-82
2021/12/22 11:48:35;;;;;;;0.40;0.40;;;0.30;99.90;;;;;;5073214;28;20441;-84
2021/12/22 11:51:03;;;;;;;0.43;0.43;;;0.20;99.90;;;;;;5073362;28;20458;-84
2021/12/22 11:53:51;;;;;;;1.00;1.00;;;0.20;99.90;;;;;;5073307;28;20444;-84
2021/12/22 11:56:34;;;;;;;0.67;0.67;;;0.10;99.90;;;;;;5073368;28;20428;-85
2021/12/22 11:59:01;;;;;;;0.30;0.30;;;0.20;99.90;;;;;;5073135;28;20435;-85
2021/12/22 12:01:29;;;;;;;0.30;0.30;;;0.20;99.90;;;;;;5072986;28;20444;-85
2021/12/22 12:04:12;;;;;;;0.30;0.30;;;0.10;99.90;;;;;;5072926;28;20936;-85
2021/12/22 12:06:49;;;;;;;0.30;0.30;;;0.00;99.90;;;;;;5073276;28;20408;-84
2021/12/22 12:09:21;;;;;;;0.40;0.40;;;0.00;99.90;;;;;;5073300;28;20396;-84
2021/12/22 12:11:51;;;;;;;0.30;0.30;;;0.00;99.90;;;;;;5072849;28;20455;-84
2021/12/22 12:14:56;;;;;;;0.50;0.40;;;0.00;99.90;;;;;;5073870;28;20440;-84
2021/12/22 12:23:27;;;;;;;3.23;1.17;;;-0.10;99.90;;;;;;5073322;28;20578;-85
2021/12/22 12:25:53;;;;;;;0.30;0.20;;;-0.10;99.90;;;;;;5073793;28;20475;-84
2021/12/22 12:28:21;;;;;;;1.47;1.07;;;-0.20;99.90;;;;;;5073026;28;20468;-85
2021/12/22 12:30:50;;;;;;;0.90;0.83;;;-0.10;99.90;;;;;;5072977;28;20523;-84
2021/12/22 12:33:26;;;;;;;0.87;0.87;;;-0.10;99.90;;;;;;5073549;28;20425;-84
2021/12/22 12:36:03;;;;;;;0.70;0.70;;;-0.20;99.90;;;;;;5076599;28;20476;-84
2021/12/22 12:38:44;;;;;;;0.30;0.30;;;-0.20;99.90;;;;;;5076532;28;20479;-84
2021/12/22 12:41:31;;;;;;;0.30;0.30;;;-0.20;99.90;;;;;;5076225;28;20978;-84
2021/12/22 12:44:07;;;;;;;0.50;0.50;;;-0.20;99.90;;;;;;5076131;28;20480;-84
2021/12/22 12:46:43;;;;;;;0.40;0.40;;;-0.20;99.90;;;;;;5076115;28;20916;-84
2021/12/22 12:49:32;;;;;;;0.30;0.30;;;-0.20;99.90;;;;;;5076378;28;20520;-84
2021/12/22 12:52:00;;;;;;;0.30;0.30;;;-0.20;99.90;;;;;;5066008;28;20447;-84
2021/12/22 12:54:33;;;;;;;0.47;0.47;;;-0.20;99.90;;;;;;5076868;28;20718;-85
2021/12/22 12:57:01;;;;;;;0.30;0.30;;;-0.20;99.90;;;;;;5076325;28;20433;-84
2021/12/22 12:59:47;;;;;;;0.30;0.30;;;-0.20;99.90;;;;;;5076183;28;20990;-85
2021/12/22 13:02:21;;;;;;;0.30;0.30;;;-0.20;99.90;;;;;;5075974;28;20452;-84
2021/12/22 13:04:54;;;;;;;0.40;0.40;;;-0.20;99.90;;;;;;5076177;28;20413;-84
2021/12/22 13:07:22;;;;;;;0.30;0.30;;;-0.10;99.90;;;;;;5076129;28;20792;-85
2021/12/22 13:09:51;;;;;;;0.30;0.30;;;-0.20;99.90;;;;;;5076047;28;20425;-84
2021/12/22 13:12:32;;;;;;;2.70;1.03;;;-0.20;99.90;;;;;;5075814;28;20461;-84